Time;durP1;ratioP1;P1;durP2;ratioP2;P2;SDS_P1;SDS_P2;PMS_P1;PMS_P2;Temp;Humidity;BMP_temperature;BMP_pressure;BME280_temperature;BME280_humidity;BME280_pressure;Samples;Min_cycle;Max_cycle;Signal;HPM_P1;HPM_P2
2022/11/06 00:00:35;;;;;;;12.70;9.47;;;5.70;99.90;;;;;;5093179;28;20200;-60
2022/11/06 00:03:03;;;;;;;12.43;9.97;;;5.70;99.90;;;;;;5093405;28;20230;-60
2022/11/06 00:08:25;;;;;;;11.13;9.37;;;5.70;99.90;;;;;;5092641;28;20640;-58
2022/11/06 00:10:52;;;;;;;13.60;9.33;;;5.70;99.90;;;;;;5092862;28;20235;-59
2022/11/06 00:13:19;;;;;;;13.30;8.77;;;5.70;99.90;;;;;;5092677;28;20235;-58
2022/11/06 00:15:46;;;;;;;12.50;9.80;;;5.70;99.90;;;;;;5092063;28;20596;-60
2022/11/06 00:18:12;;;;;;;11.50;9.53;;;5.70;99.90;;;;;;5092923;28;20200;-59
2022/11/06 00:20:39;;;;;;;10.53;9.23;;;5.70;99.90;;;;;;5092717;28;20211;-60
2022/11/06 00:23:06;;;;;;;13.87;8.73;;;5.70;99.90;;;;;;5092844;28;20579;-59
2022/11/06 00:25:34;;;;;;;13.50;9.63;;;5.70;99.90;;;;;;5092526;28;20200;-59
2022/11/06 00:28:01;;;;;;;11.57;9.30;;;5.80;99.90;;;;;;5092885;28;20383;-59
2022/11/06 00:30:28;;;;;;;12.97;9.73;;;5.80;99.90;;;;;;5095931;28;20207;-59
2022/11/06 00:32:55;;;;;;;13.10;9.00;;;5.80;99.90;;;;;;5097190;28;20215;-59
2022/11/06 00:35:21;;;;;;;13.60;9.47;;;5.80;99.90;;;;;;5096217;28;20250;-58
2022/11/06 00:37:48;;;;;;;11.93;9.47;;;5.90;99.90;;;;;;5097089;28;20566;-59
2022/11/06 00:40:15;;;;;;;11.53;9.97;;;5.90;99.90;;;;;;5096842;28;20207;-60
2022/11/06 00:42:44;;;;;;;12.67;9.90;;;6.00;99.90;;;;;;5096848;28;20203;-60
2022/11/06 00:45:11;;;;;;;10.57;8.97;;;6.00;99.90;;;;;;5096221;28;20292;-59
2022/11/06 00:47:37;;;;;;;11.67;9.20;;;6.10;99.90;;;;;;5096915;28;20210;-61
2022/11/06 00:50:05;;;;;;;10.50;8.87;;;6.10;99.90;;;;;;5097164;28;20204;-59
2022/11/06 00:52:32;;;;;;;12.50;9.20;;;6.00;99.90;;;;;;5096861;28;20247;-59
2022/11/06 00:54:59;;;;;;;9.87;8.50;;;6.00;99.90;;;;;;5096159;28;20707;-60
2022/11/06 00:57:25;;;;;;;10.97;9.40;;;6.00;99.90;;;;;;5097437;28;20214;-60
2022/11/06 00:59:53;;;;;;;11.13;9.10;;;6.00;99.90;;;;;;5096732;28;20207;-61
2022/11/06 01:02:20;;;;;;;10.73;8.87;;;6.00;99.90;;;;;;5096577;28;20208;-60
2022/11/06 01:04:47;;;;;;;10.87;9.23;;;5.90;99.90;;;;;;5096703;28;20255;-61
2022/11/06 01:07:14;;;;;;;11.53;8.57;;;5.90;99.90;;;;;;5097111;28;20216;-59
2022/11/06 01:09:41;;;;;;;9.87;8.20;;;5.90;99.90;;;;;;5097133;28;20230;-60
2022/11/06 01:12:08;;;;;;;13.30;8.40;;;5.90;99.90;;;;;;5097942;28;20206;-60
2022/11/06 01:14:34;;;;;;;10.17;8.07;;;5.90;99.90;;;;;;5097647;28;20270;-58
2022/11/06 01:17:03;;;;;;;10.67;7.93;;;5.80;99.90;;;;;;5097419;28;20232;-60
2022/11/06 01:19:30;;;;;;;10.63;8.50;;;5.80;99.90;;;;;;5100333;28;20575;-60
2022/11/06 01:21:56;;;;;;;11.17;8.13;;;5.90;99.90;;;;;;5097794;28;20214;-59
2022/11/06 01:24:25;;;;;;;12.77;8.83;;;5.80;99.90;;;;;;5097150;28;20231;-59
2022/11/06 01:26:52;;;;;;;9.90;8.17;;;5.80;99.90;;;;;;5096873;28;20370;-60
2022/11/06 01:29:20;;;;;;;9.27;7.93;;;5.80;99.90;;;;;;5099006;28;20708;-58
2022/11/06 01:31:48;;;;;;;8.20;6.97;;;5.80;99.90;;;;;;5099685;28;20683;-60
2022/11/06 01:34:17;;;;;;;11.23;7.57;;;5.70;99.90;;;;;;5101036;28;20232;-60
2022/11/06 01:36:45;;;;;;;10.73;7.87;;;5.70;99.90;;;;;;5099281;28;20242;-60
2022/11/06 01:39:14;;;;;;;9.60;7.93;;;5.70;99.90;;;;;;5097251;28;20212;-58
2022/11/06 01:41:43;;;;;;;8.60;7.63;;;5.70;99.90;;;;;;5095869;28;20294;-60
2022/11/06 01:44:43;;;;;;;11.90;8.10;;;5.70;99.90;;;;;;5095685;28;20227;-59
2022/11/06 01:47:20;;;;;;;11.50;9.00;;;5.70;99.90;;;;;;5095884;28;20208;-60
2022/11/06 01:49:51;;;;;;;10.17;7.80;;;5.70;99.90;;;;;;5095836;28;20199;-58
2022/11/06 01:52:18;;;;;;;9.87;8.07;;;5.70;99.90;;;;;;5095649;28;20211;-61
2022/11/06 01:54:50;;;;;;;9.67;7.73;;;5.60;99.90;;;;;;5095935;28;20232;-58
2022/11/06 01:57:16;;;;;;;9.73;8.20;;;5.60;99.90;;;;;;5096361;28;20311;-59
2022/11/06 01:59:45;;;;;;;8.70;7.20;;;5.60;99.90;;;;;;5096394;28;20215;-60
2022/11/06 02:02:15;;;;;;;8.57;7.33;;;5.60;99.90;;;;;;5095333;28;20676;-58
2022/11/06 02:04:44;;;;;;;10.17;8.10;;;5.50;99.90;;;;;;5095423;28;20239;-59
2022/11/06 02:07:12;;;;;;;10.77;8.00;;;5.50;99.90;;;;;;5095934;28;20591;-60
2022/11/06 02:09:39;;;;;;;11.17;8.33;;;5.50;99.90;;;;;;5095494;28;20208;-59
2022/11/06 02:12:13;;;;;;;12.37;8.37;;;5.40;99.90;;;;;;5095336;28;20208;-59
2022/11/06 02:14:45;;;;;;;11.03;7.73;;;5.40;99.90;;;;;;5095265;28;20234;-60
2022/11/06 02:17:20;;;;;;;10.33;7.37;;;5.30;99.90;;;;;;5094825;28;20228;-58
2022/11/06 02:19:59;;;;;;;8.83;7.47;;;5.40;99.90;;;;;;5095127;28;20351;-59
2022/11/06 02:22:50;;;;;;;9.23;7.47;;;5.30;99.90;;;;;;5095047;28;20298;-58
2022/11/06 02:25:26;;;;;;;8.93;7.33;;;5.30;99.90;;;;;;5094255;28;20255;-60
2022/11/06 02:28:02;;;;;;;9.10;7.40;;;5.20;99.90;;;;;;5094744;28;20207;-58
2022/11/06 02:30:33;;;;;;;8.63;7.20;;;5.10;99.90;;;;;;5095245;28;20243;-57
2022/11/06 02:33:03;;;;;;;9.40;6.70;;;5.10;99.90;;;;;;5095040;28;20243;-59
2022/11/06 02:35:34;;;;;;;9.23;7.33;;;5.10;99.90;;;;;;5094369;28;20205;-59
2022/11/06 02:38:07;;;;;;;9.47;7.63;;;5.10;99.90;;;;;;5094809;28;20204;-58
2022/11/06 02:40:37;;;;;;;8.17;6.53;;;5.10;99.90;;;;;;5094927;28;20205;-59
2022/11/06 02:43:07;;;;;;;8.17;6.80;;;4.90;99.90;;;;;;5094467;28;20240;-58
2022/11/06 02:45:41;;;;;;;9.33;7.00;;;4.70;99.90;;;;;;5094392;28;20213;-58
2022/11/06 02:48:09;;;;;;;8.67;7.20;;;4.80;99.90;;;;;;5095267;28;20295;-58
2022/11/06 02:50:42;;;;;;;11.67;7.83;;;4.80;99.90;;;;;;5094279;28;20676;-58
2022/11/06 02:53:11;;;;;;;10.03;7.57;;;4.80;99.90;;;;;;5093715;28;20234;-58
2022/11/06 02:55:40;;;;;;;9.23;7.10;;;4.80;99.90;;;;;;5093447;28;20204;-59
2022/11/06 02:58:14;;;;;;;8.93;6.60;;;4.80;99.90;;;;;;5094339;28;20204;-58
2022/11/06 03:00:41;;;;;;;7.90;7.10;;;4.80;99.90;;;;;;5094115;28;20576;-59
2022/11/06 03:03:13;;;;;;;9.27;7.00;;;4.80;99.90;;;;;;5094069;28;20208;-58
2022/11/06 03:05:47;;;;;;;9.07;7.00;;;4.80;99.90;;;;;;5094201;28;20208;-58
2022/11/06 03:08:21;;;;;;;10.67;7.63;;;4.70;99.90;;;;;;5094294;28;20272;-58
2022/11/06 03:10:58;;;;;;;8.77;7.27;;;4.50;99.90;;;;;;5093783;28;20580;-58
2022/11/06 03:13:34;;;;;;;8.33;6.53;;;4.40;99.90;;;;;;5094027;28;20700;-60
2022/11/06 03:16:04;;;;;;;10.47;7.00;;;4.30;99.90;;;;;;5093880;28;20219;-61
2022/11/06 03:18:36;;;;;;;7.67;6.83;;;4.20;99.90;;;;;;5095084;28;20208;-58
2022/11/06 03:21:08;;;;;;;8.17;6.63;;;4.20;99.90;;;;;;5094901;28;20223;-59
2022/11/06 03:23:40;;;;;;;8.63;6.40;;;4.10;99.90;;;;;;5094444;28;20239;-59
2022/11/06 03:26:13;;;;;;;8.93;6.53;;;4.10;99.90;;;;;;5094189;28;20212;-59
2022/11/06 03:28:51;;;;;;;8.23;6.50;;;4.00;99.90;;;;;;5095060;28;20207;-59
2022/11/06 03:31:22;;;;;;;8.93;6.97;;;4.00;99.90;;;;;;5094291;28;20291;-59
2022/11/06 03:33:52;;;;;;;9.60;7.50;;;4.00;99.90;;;;;;5093792;28;20231;-59
2022/11/06 03:36:22;;;;;;;9.40;7.63;;;4.00;99.90;;;;;;5093191;28;20228;-59
2022/11/06 03:38:53;;;;;;;10.20;7.20;;;4.20;99.90;;;;;;5093547;28;20295;-59
2022/11/06 03:41:25;;;;;;;10.60;7.40;;;4.20;99.90;;;;;;5093309;28;20211;-59
2022/11/06 03:43:56;;;;;;;9.23;7.23;;;4.20;99.90;;;;;;5093530;28;20689;-59
2022/11/06 03:46:25;;;;;;;10.23;7.07;;;4.20;99.90;;;;;;5092828;28;20595;-59
2022/11/06 03:48:55;;;;;;;12.63;7.00;;;4.10;99.90;;;;;;5093660;28;20200;-60
2022/11/06 03:51:28;;;;;;;8.53;6.70;;;4.10;99.90;;;;;;5094650;28;20575;-59
2022/11/06 03:53:59;;;;;;;8.67;6.90;;;4.10;99.90;;;;;;5094432;28;20220;-59
2022/11/06 03:56:32;;;;;;;10.40;7.00;;;4.10;99.90;;;;;;5092935;28;20224;-59
2022/11/06 03:59:04;;;;;;;7.63;6.37;;;4.10;99.90;;;;;;5093164;28;20204;-59
2022/11/06 04:01:35;;;;;;;9.63;7.13;;;4.10;99.90;;;;;;5093115;28;20208;-59
2022/11/06 04:04:05;;;;;;;7.73;6.30;;;4.10;99.90;;;;;;5093730;28;20227;-59
2022/11/06 04:06:36;;;;;;;8.67;6.23;;;4.20;99.90;;;;;;5092546;28;20200;-59
2022/11/06 04:14:39;;;;;;;9.57;7.37;;;4.10;99.90;;;;;;5092604;28;20326;-59
2022/11/06 04:17:10;;;;;;;7.27;6.00;;;4.10;99.90;;;;;;5092235;28;20232;-59
2022/11/06 04:19:37;;;;;;;7.03;5.87;;;4.10;99.90;;;;;;5092654;28;20204;-59
2022/11/06 04:22:22;;;;;;;7.03;6.00;;;4.10;99.90;;;;;;5092236;28;20663;-59
2022/11/06 04:28:12;;;;;;;7.83;5.67;;;3.90;99.90;;;;;;5092434;28;20207;-60
2022/11/06 04:30:46;;;;;;;7.30;5.63;;;3.90;99.90;;;;;;5092312;28;20211;-59
2022/11/06 04:33:20;;;;;;;7.80;6.20;;;3.90;99.90;;;;;;5092689;28;20208;-59
2022/11/06 04:36:01;;;;;;;7.30;5.40;;;3.90;99.90;;;;;;5091943;28;20204;-59
2022/11/06 04:38:36;;;;;;;6.93;5.37;;;4.00;99.90;;;;;;5092553;28;20676;-59
2022/11/06 04:41:14;;;;;;;6.80;5.60;;;4.10;99.90;;;;;;5092712;28;20220;-59
2022/11/06 04:43:45;;;;;;;6.40;5.10;;;4.10;99.90;;;;;;5092453;28;20230;-59
2022/11/06 04:46:19;;;;;;;7.83;5.50;;;4.00;99.90;;;;;;5092089;28;20577;-59
2022/11/06 04:48:47;;;;;;;6.20;5.27;;;3.90;99.90;;;;;;5093429;28;20200;-59
2022/11/06 04:51:15;;;;;;;9.10;5.67;;;4.00;99.90;;;;;;5092476;28;20208;-59
2022/11/06 04:53:43;;;;;;;6.83;5.37;;;4.00;99.90;;;;;;5091940;28;20239;-59
2022/11/06 04:56:12;;;;;;;7.73;5.47;;;4.00;99.90;;;;;;5091618;28;20205;-59
2022/11/06 04:58:39;;;;;;;8.07;6.00;;;4.00;99.90;;;;;;5092378;28;20325;-59
2022/11/06 05:01:06;;;;;;;7.70;5.53;;;4.00;99.90;;;;;;5092278;28;20204;-59
2022/11/06 05:03:34;;;;;;;7.73;5.87;;;4.00;99.90;;;;;;5092185;28;20708;-59
2022/11/06 05:06:01;;;;;;;6.43;5.63;;;4.00;99.90;;;;;;5091510;28;20215;-59
2022/11/06 05:08:28;;;;;;;7.57;6.17;;;4.00;99.90;;;;;;5092120;28;20234;-59
2022/11/06 05:10:54;;;;;;;7.97;5.80;;;4.10;99.90;;;;;;5092338;28;20204;-59
2022/11/06 05:13:21;;;;;;;6.93;5.50;;;4.10;99.90;;;;;;5092162;28;20228;-60
2022/11/06 05:15:48;;;;;;;6.83;5.93;;;4.00;99.90;;;;;;5093322;28;20212;-60
2022/11/06 05:18:15;;;;;;;7.70;5.37;;;3.90;99.90;;;;;;5096000;28;20704;-60
2022/11/06 05:20:43;;;;;;;6.60;5.67;;;3.90;99.90;;;;;;5095711;28;20204;-59
2022/11/06 05:23:08;;;;;;;7.63;5.53;;;3.90;99.90;;;;;;5095751;28;20204;-60
2022/11/06 05:25:38;;;;;;;6.93;6.03;;;4.00;99.90;;;;;;5094954;28;20204;-60
2022/11/06 05:28:06;;;;;;;7.20;5.77;;;4.00;99.90;;;;;;5095462;28;20628;-60
2022/11/06 05:30:34;;;;;;;5.67;4.83;;;3.90;99.90;;;;;;5095476;28;20699;-61
2022/11/06 05:33:01;;;;;;;7.33;5.50;;;3.90;99.90;;;;;;5094959;28;20204;-60
2022/11/06 05:35:28;;;;;;;6.73;5.53;;;3.90;99.90;;;;;;5095009;28;20204;-60
2022/11/06 05:38:00;;;;;;;7.23;5.60;;;4.00;99.90;;;;;;5095617;28;20666;-60
2022/11/06 05:40:28;;;;;;;6.80;5.17;;;3.90;99.90;;;;;;5095481;28;20211;-59
2022/11/06 05:42:54;;;;;;;6.30;5.00;;;3.90;99.90;;;;;;5095743;28;20295;-59
2022/11/06 05:45:21;;;;;;;6.60;5.67;;;3.90;99.90;;;;;;5095142;28;20231;-59
2022/11/06 05:47:48;;;;;;;7.10;5.00;;;3.90;99.90;;;;;;5096143;28;20698;-59
2022/11/06 05:50:15;;;;;;;6.63;5.33;;;3.90;99.90;;;;;;5096826;28;20215;-59
2022/11/06 05:52:41;;;;;;;6.13;5.27;;;4.00;99.90;;;;;;5097215;28;20204;-59
2022/11/06 05:55:10;;;;;;;6.40;5.40;;;4.00;99.90;;;;;;5096695;28;20730;-59
2022/11/06 05:57:37;;;;;;;8.60;5.63;;;4.00;99.90;;;;;;5095779;28;20224;-59
2022/11/06 06:00:05;;;;;;;6.53;5.53;;;4.00;99.90;;;;;;5095189;28;20684;-59
2022/11/06 06:02:32;;;;;;;6.67;5.37;;;4.00;99.90;;;;;;5096271;28;20306;-59
2022/11/06 06:04:59;;;;;;;7.17;5.60;;;4.00;99.90;;;;;;5095496;28;20727;-59
2022/11/06 06:07:25;;;;;;;5.60;4.77;;;3.90;99.90;;;;;;5094202;28;20212;-58
2022/11/06 06:09:52;;;;;;;6.50;5.17;;;3.90;99.90;;;;;;5095422;28;20215;-59
2022/11/06 06:12:22;;;;;;;6.50;5.43;;;3.80;99.90;;;;;;5094948;28;20207;-59
2022/11/06 06:14:49;;;;;;;6.17;5.57;;;3.80;99.90;;;;;;5094913;28;20228;-58
2022/11/06 06:17:16;;;;;;;7.07;5.80;;;3.80;99.90;;;;;;5094468;28;20636;-60
2022/11/06 06:19:43;;;;;;;17.80;11.43;;;3.80;99.90;;;;;;5095125;28;20200;-59
2022/11/06 06:22:09;;;;;;;7.03;5.63;;;3.80;99.90;;;;;;5094765;28;20208;-59
2022/11/06 06:24:36;;;;;;;10.00;6.70;;;3.80;99.90;;;;;;5094733;28;20306;-60
2022/11/06 06:27:03;;;;;;;9.10;6.93;;;3.80;99.90;;;;;;5093862;28;20299;-58
2022/11/06 06:29:32;;;;;;;7.83;5.63;;;3.80;99.90;;;;;;5094697;28;20578;-58
2022/11/06 06:31:58;;;;;;;6.80;5.40;;;3.80;99.90;;;;;;5095202;28;20204;-58
2022/11/06 06:34:25;;;;;;;9.67;5.57;;;3.80;99.90;;;;;;5094690;28;20242;-58
2022/11/06 06:36:53;;;;;;;6.70;4.90;;;3.80;99.90;;;;;;5095079;28;20576;-59
2022/11/06 06:39:20;;;;;;;8.13;5.40;;;3.90;99.90;;;;;;5095014;28;20220;-59
2022/11/06 06:41:48;;;;;;;7.00;5.33;;;3.90;99.90;;;;;;5094537;28;20208;-58
2022/11/06 06:44:16;;;;;;;8.53;6.50;;;4.00;99.90;;;;;;5094724;28;20223;-59
2022/11/06 06:46:44;;;;;;;8.53;6.40;;;4.10;99.90;;;;;;5093846;28;20683;-58
2022/11/06 06:49:11;;;;;;;6.80;6.00;;;4.10;99.90;;;;;;5094695;28;20220;-59
2022/11/06 06:51:38;;;;;;;8.43;5.70;;;4.10;99.90;;;;;;5094402;28;20418;-59
2022/11/06 06:54:05;;;;;;;8.30;6.60;;;4.20;99.90;;;;;;5094131;28;20226;-59
2022/11/06 06:56:31;;;;;;;6.33;5.30;;;4.20;99.90;;;;;;5093447;28;20231;-59
2022/11/06 06:58:59;;;;;;;8.87;6.10;;;4.20;99.90;;;;;;5094918;28;20212;-59
2022/11/06 07:01:25;;;;;;;7.50;5.70;;;4.30;99.90;;;;;;5095659;28;20204;-60
2022/11/06 07:03:53;;;;;;;7.53;5.93;;;4.30;99.90;;;;;;5095890;28;20235;-58
2022/11/06 07:06:20;;;;;;;8.07;6.23;;;4.40;99.90;;;;;;5095037;28;20201;-59
2022/11/06 07:08:47;;;;;;;7.13;6.00;;;4.20;99.90;;;;;;5095176;28;20197;-59
2022/11/06 07:11:14;;;;;;;6.70;5.63;;;4.10;99.90;;;;;;5094910;28;20234;-59
2022/11/06 07:13:41;;;;;;;7.27;6.50;;;4.10;99.90;;;;;;5094620;28;20239;-58
2022/11/06 07:16:09;;;;;;;6.83;5.93;;;4.10;99.90;;;;;;5094112;28;20211;-57
2022/11/06 07:18:37;;;;;;;7.90;5.57;;;4.10;99.90;;;;;;5095286;28;20228;-58
2022/11/06 07:21:06;;;;;;;6.87;5.43;;;3.90;99.90;;;;;;5094143;28;20212;-59
2022/11/06 07:23:34;;;;;;;7.13;5.57;;;3.70;99.90;;;;;;5094127;28;20732;-59
2022/11/06 07:26:01;;;;;;;10.00;6.53;;;3.70;99.90;;;;;;5094048;28;20652;-59
2022/11/06 07:28:30;;;;;;;7.93;5.90;;;3.70;99.90;;;;;;5093813;28;20737;-60
2022/11/06 07:30:59;;;;;;;8.53;6.80;;;3.80;99.90;;;;;;5093990;28;20201;-59
2022/11/06 07:33:26;;;;;;;10.00;6.83;;;3.70;99.90;;;;;;5093845;28;20335;-59
2022/11/06 07:35:53;;;;;;;8.03;6.83;;;3.80;99.90;;;;;;5093241;28;20204;-59
2022/11/06 07:38:21;;;;;;;9.77;6.97;;;3.90;99.90;;;;;;5093440;28;20227;-59
2022/11/06 07:40:48;;;;;;;10.73;7.53;;;4.00;99.90;;;;;;5093848;28;20215;-59
2022/11/06 07:43:15;;;;;;;10.57;7.73;;;4.10;99.90;;;;;;5093515;28;20711;-63
2022/11/06 07:45:41;;;;;;;12.30;8.20;;;4.20;99.90;;;;;;5093719;28;20208;-59
2022/11/06 07:48:08;;;;;;;12.57;7.47;;;4.30;99.90;;;;;;5095364;28;20242;-58
2022/11/06 07:50:35;;;;;;;13.40;7.83;;;4.50;99.90;;;;;;5094697;28;20212;-58
2022/11/06 07:53:03;;;;;;;11.67;8.17;;;4.50;99.90;;;;;;5094157;28;20216;-58
2022/11/06 07:55:31;;;;;;;11.43;7.40;;;4.70;99.90;;;;;;5093866;28;20200;-60
2022/11/06 07:57:59;;;;;;;12.50;7.40;;;4.70;99.90;;;;;;5094433;28;20587;-59
2022/11/06 08:00:26;;;;;;;11.33;7.37;;;4.90;99.90;;;;;;5093994;28;20200;-58
2022/11/06 08:02:53;;;;;;;9.33;6.33;;;5.00;99.90;;;;;;5093134;28;20211;-58
2022/11/06 08:05:20;;;;;;;11.83;7.70;;;5.20;99.90;;;;;;5092927;28;20591;-59
2022/11/06 08:07:47;;;;;;;9.17;7.07;;;5.50;99.90;;;;;;5093657;28;20721;-59
2022/11/06 08:10:13;;;;;;;9.93;7.30;;;5.70;99.90;;;;;;5093536;28;20200;-58
2022/11/06 08:12:42;;;;;;;13.90;8.40;;;5.90;99.90;;;;;;5093089;28;20208;-60
2022/11/06 08:15:09;;;;;;;9.50;7.30;;;6.20;99.90;;;;;;5092594;28;20520;-59
2022/11/06 08:17:36;;;;;;;10.50;7.70;;;6.50;99.90;;;;;;5092368;28;20220;-58
2022/11/06 08:20:03;;;;;;;11.33;6.90;;;6.70;99.90;;;;;;5093402;28;20204;-60
2022/11/06 08:22:30;;;;;;;10.77;6.67;;;6.90;99.90;;;;;;5093584;28;20214;-61
2022/11/06 08:24:57;;;;;;;8.40;6.63;;;7.00;99.90;;;;;;5093481;28;20235;-59
2022/11/06 08:27:24;;;;;;;9.67;7.13;;;7.20;99.90;;;;;;5092667;28;20195;-58
2022/11/06 08:29:52;;;;;;;11.57;7.20;;;7.20;99.90;;;;;;5092913;28;20295;-58
2022/11/06 08:32:19;;;;;;;10.10;6.83;;;7.20;99.90;;;;;;5092548;28;20211;-58
2022/11/06 08:34:46;;;;;;;10.20;6.40;;;7.20;99.90;;;;;;5092502;28;20236;-58
2022/11/06 08:37:13;;;;;;;9.67;6.97;;;7.30;99.90;;;;;;5092131;28;20204;-58
2022/11/06 08:39:39;;;;;;;9.27;7.13;;;7.30;99.90;;;;;;5092629;28;20291;-58
2022/11/06 08:42:07;;;;;;;8.83;6.97;;;7.40;99.90;;;;;;5092814;28;20214;-58
2022/11/06 08:44:33;;;;;;;11.10;7.60;;;7.50;99.90;;;;;;5092228;28;20260;-58
2022/11/06 08:47:01;;;;;;;9.77;7.03;;;7.60;99.90;;;;;;5091815;28;20209;-58
2022/11/06 08:49:28;;;;;;;10.67;7.30;;;7.80;99.90;;;;;;5092518;28;20425;-59
2022/11/06 08:51:55;;;;;;;9.33;7.10;;;8.00;99.90;;;;;;5095908;28;20204;-60
2022/11/06 08:54:22;;;;;;;8.23;7.00;;;8.20;99.90;;;;;;5096553;28;20220;-61
2022/11/06 08:56:49;;;;;;;9.27;7.03;;;8.30;99.90;;;;;;5097002;28;20216;-62
2022/11/06 08:59:16;;;;;;;8.47;6.73;;;8.20;99.90;;;;;;5096778;28;20228;-60
2022/11/06 09:01:43;;;;;;;9.53;6.50;;;8.20;99.90;;;;;;5097128;28;20208;-61
2022/11/06 09:04:11;;;;;;;8.70;6.97;;;8.10;99.90;;;;;;5096525;28;20224;-61
2022/11/06 09:06:38;;;;;;;8.63;6.53;;;8.20;99.90;;;;;;5097987;28;20683;-61
2022/11/06 09:09:05;;;;;;;8.70;6.70;;;8.20;99.90;;;;;;5098642;28;20295;-61
2022/11/06 09:11:32;;;;;;;9.93;6.80;;;8.30;99.90;;;;;;5097144;28;20611;-61
2022/11/06 09:13:59;;;;;;;8.83;6.33;;;8.50;99.90;;;;;;5097298;28;20231;-60
2022/11/06 09:16:26;;;;;;;9.47;7.00;;;8.60;99.90;;;;;;5096510;28;20212;-60
2022/11/06 09:18:55;;;;;;;8.07;6.07;;;8.70;99.90;;;;;;5096900;28;20322;-62
2022/11/06 09:21:23;;;;;;;8.87;6.87;;;8.80;99.90;;;;;;5096223;28;20280;-61
2022/11/06 09:23:50;;;;;;;9.17;6.73;;;8.90;99.90;;;;;;5096062;28;20641;-61
2022/11/06 09:26:20;;;;;;;8.23;6.63;;;9.10;99.90;;;;;;5095735;28;20208;-61
2022/11/06 09:28:47;;;;;;;7.83;6.37;;;9.30;99.90;;;;;;5096464;28;20206;-60
2022/11/06 09:31:14;;;;;;;7.17;6.00;;;9.30;99.90;;;;;;5095851;28;20208;-61
2022/11/06 09:33:40;;;;;;;8.00;6.13;;;9.50;99.90;;;;;;5095718;28;20239;-62
2022/11/06 09:36:08;;;;;;;9.27;6.60;;;9.60;99.90;;;;;;5095160;28;20204;-61
2022/11/06 09:38:36;;;;;;;8.13;6.40;;;9.60;99.90;;;;;;5096045;28;20235;-61
2022/11/06 09:41:03;;;;;;;8.07;6.13;;;9.80;99.90;;;;;;5095944;28;20295;-61
2022/11/06 09:43:42;;;;;;;10.70;7.17;;;10.10;99.90;;;;;;5095759;28;20220;-60
2022/11/06 09:46:20;;;;;;;8.77;7.07;;;10.30;99.90;;;;;;5095604;28;20204;-61
2022/11/06 09:48:54;;;;;;;9.13;6.40;;;10.50;99.90;;;;;;5096565;28;20215;-61
2022/11/06 09:51:32;;;;;;;11.33;6.67;;;10.70;99.90;;;;;;5095749;28;20215;-62
2022/11/06 09:54:05;;;;;;;7.93;6.33;;;10.80;99.90;;;;;;5095840;28;20232;-61
2022/11/06 09:56:36;;;;;;;10.27;6.57;;;10.80;99.90;;;;;;5094843;28;20215;-61
2022/11/06 09:59:09;;;;;;;10.30;6.93;;;10.70;99.90;;;;;;5095820;28;20246;-61
2022/11/06 10:01:41;;;;;;;9.73;6.47;;;10.80;99.90;;;;;;5096021;28;20204;-60
2022/11/06 10:04:20;;;;;;;7.83;6.10;;;11.00;99.90;;;;;;5095186;28;20699;-61
2022/11/06 10:06:47;;;;;;;6.53;5.80;;;11.10;99.90;;;;;;5095885;28;20208;-62
2022/11/06 10:09:16;;;;;;;6.50;5.40;;;11.30;99.90;;;;;;5095091;28;20207;-61
2022/11/06 10:11:56;;;;;;;8.00;5.70;;;11.40;99.90;;;;;;5095272;28;20205;-61
2022/11/06 10:14:36;;;;;;;7.43;6.13;;;11.60;99.90;;;;;;5094945;28;20234;-61
2022/11/06 10:17:16;;;;;;;11.67;8.63;;;11.70;99.90;;;;;;5094869;28;20204;-59
2022/11/06 10:19:49;;;;;;;7.43;5.57;;;11.90;99.90;;;;;;5093770;28;20452;-64
2022/11/06 10:22:17;;;;;;;6.90;5.50;;;12.10;99.90;;;;;;5072419;28;20201;-61
2022/11/06 10:24:47;;;;;;;8.70;5.97;;;12.10;99.90;;;;;;5074373;28;20599;-62
2022/11/06 10:27:17;;;;;;;6.50;5.43;;;12.10;99.90;;;;;;5093018;28;20208;-56
2022/11/06 10:30:02;;;;;;;5.73;5.13;;;12.20;99.90;;;;;;5093874;28;20225;-62
2022/11/06 10:32:49;;;;;;;6.33;4.70;;;12.30;99.90;;;;;;5093045;28;20218;-60
2022/11/06 10:35:20;;;;;;;4.33;3.93;;;12.30;99.90;;;;;;5064075;28;20236;-61
2022/11/06 10:37:52;;;;;;;3.70;3.40;;;12.40;99.90;;;;;;5072576;28;20201;-59
2022/11/06 10:40:24;;;;;;;3.93;3.03;;;12.40;99.90;;;;;;5071909;28;20205;-59
2022/11/06 10:43:02;;;;;;;4.37;3.70;;;12.10;99.90;;;;;;5071776;28;20201;-60
2022/11/06 10:45:30;;;;;;;3.57;3.27;;;11.80;99.90;;;;;;5072350;28;20204;-59
2022/11/06 10:48:05;;;;;;;4.47;3.13;;;11.80;99.90;;;;;;5072144;28;20303;-60
2022/11/06 10:50:42;;;;;;;3.67;3.23;;;11.70;99.90;;;;;;5072903;28;20734;-61
2022/11/06 10:53:19;;;;;;;5.23;3.20;;;11.80;99.90;;;;;;5072633;28;20208;-59
2022/11/06 10:56:01;;;;;;;4.33;3.20;;;11.80;99.90;;;;;;5072384;28;20208;-62
2022/11/06 10:58:30;;;;;;;5.27;3.50;;;11.90;99.90;;;;;;5073245;28;20596;-60
2022/11/06 11:01:02;;;;;;;4.33;3.77;;;11.90;99.90;;;;;;5072493;28;20582;-63
2022/11/06 11:03:31;;;;;;;4.63;3.43;;;12.00;99.90;;;;;;5072538;28;20619;-61
2022/11/06 11:05:58;;;;;;;5.13;3.20;;;11.90;99.90;;;;;;5071993;28;20315;-60
2022/11/06 11:08:37;;;;;;;3.67;3.30;;;11.70;99.90;;;;;;5072561;28;20201;-60
2022/11/06 11:11:15;;;;;;;5.60;3.17;;;11.70;99.90;;;;;;5072660;28;20205;-61
2022/11/06 11:13:43;;;;;;;4.40;3.50;;;11.90;99.90;;;;;;5071270;28;20228;-64
2022/11/06 11:16:14;;;;;;;3.97;3.33;;;12.00;99.90;;;;;;5072275;28;20209;-58
2022/11/06 11:18:41;;;;;;;3.10;2.80;;;11.90;99.90;;;;;;5073909;28;20224;-60
2022/11/06 11:21:24;;;;;;;3.70;3.20;;;12.00;99.90;;;;;;5072397;28;20221;-59
2022/11/06 11:24:07;;;;;;;3.37;2.97;;;12.10;99.90;;;;;;5071715;28;20217;-58
2022/11/06 11:26:38;;;;;;;3.23;2.73;;;12.20;99.90;;;;;;5072478;28;20212;-62
2022/11/06 11:29:14;;;;;;;3.20;2.70;;;12.20;99.90;;;;;;5074001;28;20201;-63
2022/11/06 11:31:46;;;;;;;4.73;2.33;;;12.20;99.90;;;;;;5073154;28;20223;-61
2022/11/06 11:34:18;;;;;;;2.90;2.60;;;12.10;99.90;;;;;;5074366;28;20239;-63
2022/11/06 11:36:56;;;;;;;2.80;2.50;;;12.10;99.90;;;;;;5075145;28;20197;-67
2022/11/06 11:39:27;;;;;;;2.50;2.17;;;12.00;99.90;;;;;;5075091;28;20294;-59
2022/11/06 11:42:23;;;;;;;3.40;2.50;;;12.10;99.90;;;;;;5073409;28;20205;-58
2022/11/06 11:45:23;;;;;;;3.10;2.60;;;12.10;99.90;;;;;;5073627;28;20300;-58
2022/11/06 11:47:51;;;;;;;2.53;2.33;;;12.40;99.90;;;;;;5074817;28;20213;-59
2022/11/06 11:50:28;;;;;;;2.73;2.53;;;12.50;99.90;;;;;;5073684;28;20204;-59
2022/11/06 11:52:59;;;;;;;2.90;2.57;;;12.60;99.90;;;;;;5074170;28;20211;-61
2022/11/06 11:55:28;;;;;;;2.90;2.60;;;12.80;99.90;;;;;;5072841;28;20212;-60
2022/11/06 11:57:59;;;;;;;2.50;2.30;;;13.00;99.90;;;;;;5072728;28;20213;-59
2022/11/06 12:00:27;;;;;;;4.60;2.60;;;13.10;99.90;;;;;;5073125;28;20330;-59
2022/11/06 12:02:58;;;;;;;2.87;2.57;;;12.90;99.90;;;;;;5073200;28;20213;-60
2022/11/06 12:05:30;;;;;;;3.20;2.63;;;12.80;99.90;;;;;;5073112;28;20208;-60
2022/11/06 12:07:58;;;;;;;4.10;2.50;;;12.90;99.90;;;;;;5073244;28;20236;-61
2022/11/06 12:10:28;;;;;;;2.77;2.57;;;13.00;99.90;;;;;;5073258;28;20241;-60
2022/11/06 12:12:58;;;;;;;2.57;2.37;;;13.10;99.90;;;;;;5073222;28;20200;-60
2022/11/06 12:15:27;;;;;;;2.90;2.50;;;12.90;99.90;;;;;;5073519;28;20280;-59
2022/11/06 12:18:00;;;;;;;2.77;2.40;;;12.70;99.90;;;;;;5073446;28;20212;-60
2022/11/06 12:20:32;;;;;;;2.97;2.50;;;12.60;99.90;;;;;;5073120;28;20240;-59
2022/11/06 12:23:01;;;;;;;3.20;2.70;;;12.50;99.90;;;;;;5073861;28;20215;-59
2022/11/06 12:25:35;;;;;;;2.83;2.53;;;12.60;99.90;;;;;;5078880;28;20231;-59
2022/11/06 12:28:10;;;;;;;2.57;2.37;;;12.60;99.90;;;;;;5080862;28;20200;-59
2022/11/06 12:30:40;;;;;;;3.60;2.57;;;12.40;99.90;;;;;;5083359;28;20203;-60
2022/11/06 12:33:14;;;;;;;3.70;3.37;;;12.60;99.90;;;;;;5081783;28;20207;-59
2022/11/06 12:35:46;;;;;;;3.03;2.73;;;12.70;99.90;;;;;;5081389;28;20208;-59
2022/11/06 12:38:20;;;;;;;4.80;3.70;;;12.80;99.90;;;;;;5080845;28;20258;-60
2022/11/06 12:40:51;;;;;;;4.27;2.80;;;12.90;99.90;;;;;;5081208;28;20586;-60
2022/11/06 12:43:28;;;;;;;2.70;2.50;;;13.00;99.90;;;;;;5081008;28;20681;-60
2022/11/06 12:46:23;;;;;;;3.27;2.93;;;13.00;99.90;;;;;;5079723;28;20208;-60
2022/11/06 12:49:15;;;;;;;3.03;2.73;;;12.80;99.90;;;;;;5062918;28;20207;-60
2022/11/06 12:51:54;;;;;;;3.27;2.97;;;12.50;99.90;;;;;;5080317;28;20254;-60
2022/11/06 12:54:42;;;;;;;3.43;2.80;;;12.50;99.90;;;;;;5080161;28;20290;-61
2022/11/06 12:57:18;;;;;;;3.30;2.57;;;12.30;99.90;;;;;;5079460;28;20215;-60
2022/11/06 13:00:00;;;;;;;3.50;3.10;;;12.20;99.90;;;;;;5082118;28;20318;-62
2022/11/06 13:02:46;;;;;;;3.33;2.67;;;12.10;99.90;;;;;;5081247;28;20215;-60
2022/11/06 13:05:16;;;;;;;3.37;2.90;;;12.10;99.90;;;;;;5080860;28;20229;-59
2022/11/06 13:08:18;;;;;;;3.40;2.60;;;12.10;99.90;;;;;;5079377;28;20229;-60
2022/11/06 13:10:55;;;;;;;4.50;2.80;;;12.00;99.90;;;;;;5079311;28;20204;-60
2022/11/06 13:13:37;;;;;;;3.33;2.87;;;11.80;99.90;;;;;;5079508;28;20684;-60
2022/11/06 13:16:16;;;;;;;3.30;3.00;;;11.50;99.90;;;;;;5079593;28;20204;-62
2022/11/06 13:18:46;;;;;;;3.07;2.70;;;11.40;99.90;;;;;;5082045;28;20647;-59